Carnival Pride — H3VU — position and weather

sailwx.info

Track history (hours):
 
Tides and Currents Weather Stations Pressure Air Temp Water Temp Dewpoint Dewpoint Depression Visibility Wind Speed Wind Dir Waves Ship Positions

Carnival Pride

Operator: Carnival Cruise Lines

Last reported at 2017-Mar-27 08:12 UTC. Time now 2017-Mar-28 20:17 UTC.
Position N 36°46' W 075°44'.

Type: Ship. MMSI: 354215000.

Date/timePositionNaut miles runAvg speedWind from/ knotsBaromVisibWave heightAir tempDewpointWater temp
2017-Mar-27 08:12N 36°46' W 075°44'6 9.9
2017-Mar-27 07:33N 36°50' W 075°49'1010.1
2017-Mar-27 06:34N 36°57' W 075°59'5015.7
2017-Mar-27 03:21N 37°46' W 076°11'1517.7
2017-Mar-27 02:30N 38°01' W 076°13'1919.3
2017-Mar-27 01:32N 38°20' W 076°18'1919.1
2017-Mar-27 00:33N 38°37' W 076°26'1919.3
2017-Mar-26 23:33N 38°57' W 076°23'1313.4
2017-Mar-26 22:33N 39°10' W 076°25'10 9.9
2017-Mar-26 21:33N 39°15' W 076°36'0 0.3
2017-Mar-26 20:10N 39°16' W 076°36'0 0.0
2017-Mar-26 19:31N 39°16' W 076°36'0 0.0
2017-Mar-26 18:28N 39°16' W 076°36'0 0.0
2017-Mar-26 17:31N 39°16' W 076°36'0 0.0
2017-Mar-26 15:22N 39°16' W 076°36'0 0.0
2017-Mar-26 14:28N 39°16' W 076°36'0 0.1
2017-Mar-26 13:34N 39°16' W 076°36'8 8.3
2017-Mar-26 12:33N 39°11' W 076°27'1312.9
2017-Mar-26 11:33N 38°58' W 076°23'5417.6
2017-Mar-26 08:31N 38°05' W 076°13'5917.7
2017-Mar-26 05:11N 37°07' W 076°07'1016.7
2017-Mar-26 04:33N 36°58' W 075°60'10 9.5
2017-Mar-26 03:33N 36°52' W 075°51'32818.2
2017-Mar-25 09:33N 31°54' W 078°37'  
2017-Mar-22 22:30N 28°25' W 080°38'0 0.0
2017-Mar-22 10:26N 28°25' W 080°38'193 8.4
2017-Mar-21 11:28N 31°36' W 080°03'1312.3
2017-Mar-21 10:23N 31°45' W 079°51'1012.0
2017-Mar-21 09:32N 31°52' W 079°42'1212.2
2017-Mar-21 08:33N 32°00' W 079°32'1312.3
2017-Mar-21 07:29N 32°09' W 079°21'33113.8
2017-Mar-20 07:30N 36°49' W 075°48'1010.0
2017-Mar-20 06:30N 36°55' W 075°57'6616.4
2017-Mar-20 02:28N 38°00' W 076°12'4419.3
2017-Mar-20 00:11N 38°43' W 076°26'1320.0
2017-Mar-19 23:32N 38°56' W 076°23'1515.1
2017-Mar-19 22:33N 39°11' W 076°26'9 3.0
2017-Mar-19 19:26N 39°16' W 076°36'0 0.0
2017-Mar-19 18:26N 39°16' W 076°36'0 0.0
2017-Mar-19 12:33N 39°16' W 076°36'7 6.8
2017-Mar-19 11:33N 39°12' W 076°29'1311.9
2017-Mar-19 10:30N 39°00' W 076°23'3916.6
2017-Mar-19 08:09N 38°21' W 076°19'1419.3
2017-Mar-19 07:24N 38°07' W 076°13'7018.2
2017-Mar-19 03:33N 36°58' W 075°60'10 9.7
2017-Mar-19 02:33N 36°52' W 075°50'  
Track history (hours):
 
Tides and Currents Weather Stations Pressure Air Temp Water Temp Dewpoint Dewpoint Depression Visibility Wind Speed Wind Dir Waves Ship Positions

Carnival Pride

Operator: Carnival Cruise Lines

Last reported at 2017-Mar-27 08:12 UTC. Time now 2017-Mar-28 20:17 UTC.
Position N 36°46' W 075°44'.

Type: Ship. MMSI: 354215000.

Date/timePositionNaut miles runAvg speedWind from/ knotsBaromVisibWave heightAir tempDewpointWater temp
2017-Mar-27 08:12N 36°46' W 075°44'6 9.9
2017-Mar-27 07:33N 36°50' W 075°49'1010.1
2017-Mar-27 06:34N 36°57' W 075°59'5015.7
2017-Mar-27 03:21N 37°46' W 076°11'1517.7
2017-Mar-27 02:30N 38°01' W 076°13'1919.3
2017-Mar-27 01:32N 38°20' W 076°18'1919.1
2017-Mar-27 00:33N 38°37' W 076°26'1919.3
2017-Mar-26 23:33N 38°57' W 076°23'1313.4
2017-Mar-26 22:33N 39°10' W 076°25'10 9.9
2017-Mar-26 21:33N 39°15' W 076°36'0 0.3
2017-Mar-26 20:10N 39°16' W 076°36'0 0.0
2017-Mar-26 19:31N 39°16' W 076°36'0 0.0
2017-Mar-26 18:28N 39°16' W 076°36'0 0.0
2017-Mar-26 17:31N 39°16' W 076°36'0 0.0
2017-Mar-26 15:22N 39°16' W 076°36'0 0.0
2017-Mar-26 14:28N 39°16' W 076°36'0 0.1
2017-Mar-26 13:34N 39°16' W 076°36'8 8.3
2017-Mar-26 12:33N 39°11' W 076°27'1312.9
2017-Mar-26 11:33N 38°58' W 076°23'5417.6
2017-Mar-26 08:31N 38°05' W 076°13'5917.7
2017-Mar-26 05:11N 37°07' W 076°07'1016.7
2017-Mar-26 04:33N 36°58' W 075°60'10 9.5
2017-Mar-26 03:33N 36°52' W 075°51'32818.2
2017-Mar-25 09:33N 31°54' W 078°37'  
2017-Mar-22 22:30N 28°25' W 080°38'0 0.0
2017-Mar-22 10:26N 28°25' W 080°38'193 8.4
2017-Mar-21 11:28N 31°36' W 080°03'1312.3
2017-Mar-21 10:23N 31°45' W 079°51'1012.0
2017-Mar-21 09:32N 31°52' W 079°42'1212.2
2017-Mar-21 08:33N 32°00' W 079°32'1312.3
2017-Mar-21 07:29N 32°09' W 079°21'33113.8
2017-Mar-20 07:30N 36°49' W 075°48'1010.0
2017-Mar-20 06:30N 36°55' W 075°57'6616.4
2017-Mar-20 02:28N 38°00' W 076°12'4419.3
2017-Mar-20 00:11N 38°43' W 076°26'1320.0
2017-Mar-19 23:32N 38°56' W 076°23'1515.1
2017-Mar-19 22:33N 39°11' W 076°26'9 3.0
2017-Mar-19 19:26N 39°16' W 076°36'0 0.0
2017-Mar-19 18:26N 39°16' W 076°36'0 0.0
2017-Mar-19 12:33N 39°16' W 076°36'7 6.8
2017-Mar-19 11:33N 39°12' W 076°29'1311.9
2017-Mar-19 10:30N 39°00' W 076°23'3916.6
2017-Mar-19 08:09N 38°21' W 076°19'1419.3
2017-Mar-19 07:24N 38°07' W 076°13'7018.2
2017-Mar-19 03:33N 36°58' W 075°60'10 9.7
2017-Mar-19 02:33N 36°52' W 075°50'  

Dump ship's entire track history